Time;durP1;ratioP1;P1;durP2;ratioP2;P2;SDS_P1;SDS_P2;PMS_P1;PMS_P2;Temp;Humidity;BMP_temperature;BMP_pressure;BME280_temperature;BME280_humidity;BME280_pressure;Samples;Min_cycle;Max_cycle;Signal;HPM_P1;HPM_P2
2022/01/23 00:00:57;;;;;;;;;59.00;44.00;;;;;6.07;77.12;102715.88;5059465;28;45355;-61
2022/01/23 00:03:22;;;;;;;;;48.25;38.00;;;;;6.06;76.32;102714.13;5056410;28;45375;-67
2022/01/23 00:05:51;;;;;;;;;51.00;41.75;;;;;6.07;76.58;102722.00;5056145;28;45315;-66
2022/01/23 00:08:20;;;;;;;;;53.25;40.00;;;;;6.08;76.95;102717.63;5055905;28;45386;-62
2022/01/23 00:10:46;;;;;;;;;54.50;43.25;;;;;6.13;76.31;102729.91;5055798;28;45812;-66
2022/01/23 00:13:22;;;;;;;;;51.00;39.50;;;;;6.16;76.33;102729.06;5057306;28;45425;-60
2022/01/23 00:18:31;;;;;;;;;53.75;40.75;;;;;6.08;75.89;102721.16;5057977;28;45220;-66
2022/01/23 00:20:57;;;;;;;;;57.75;43.00;;;;;6.07;76.27;102723.72;5058994;28;46327;-61
2022/01/23 00:31:31;;;;;;;;;54.25;43.00;;;;;6.10;76.35;102708.97;5056865;28;45377;-57
2022/01/23 00:33:58;;;;;;;;;51.50;39.25;;;;;6.12;76.46;102708.97;5055902;28;45437;-62
2022/01/23 00:36:25;;;;;;;;;54.00;41.25;;;;;6.12;76.19;102714.22;5056709;28;45279;-62
2022/01/23 00:38:51;;;;;;;;;51.00;40.00;;;;;6.08;76.56;102705.47;5061386;28;45516;-59
2022/01/23 00:41:18;;;;;;;;;44.75;34.00;;;;;6.08;76.31;102704.56;5063209;28;45283;-64
2022/01/23 00:43:45;;;;;;;;;52.75;41.25;;;;;5.99;76.68;102706.19;5061904;28;45422;-60
2022/01/23 00:46:23;;;;;;;;;47.25;39.25;;;;;5.91;76.38;102697.38;5061911;28;45341;-60
2022/01/23 00:51:17;;;;;;;;;52.75;41.00;;;;;5.98;76.58;102700.94;5059460;28;45244;-63
2022/01/23 00:53:42;;;;;;;;;52.00;39.00;;;;;5.99;76.01;102705.31;5059799;28;45334;-67
2022/01/23 00:56:07;;;;;;;;;51.25;40.25;;;;;5.91;76.29;102686.91;5059555;28;45432;-62
2022/01/23 00:58:33;;;;;;;;;50.25;39.25;;;;;5.96;76.23;102690.47;5059441;28;45327;-64
2022/01/23 01:00:58;;;;;;;;;50.75;38.50;;;;;5.98;76.54;102696.59;5057076;28;46601;-65
2022/01/23 01:03:24;;;;;;;;;48.00;39.00;;;;;5.96;75.91;102684.38;5060431;28;45349;-67
2022/01/23 01:05:49;;;;;;;;;47.25;35.50;;;;;6.02;75.72;102694.03;5059495;28;45369;-68
2022/01/23 01:08:14;;;;;;;;;50.75;37.25;;;;;5.96;75.96;102689.59;5059145;28;45551;-65
2022/01/23 01:10:49;;;;;;;;;52.75;39.25;;;;;5.91;75.76;102686.06;5060414;28;45330;-68
2022/01/23 01:13:15;;;;;;;;;43.00;36.00;;;;;5.83;75.69;102681.59;5057794;28;45407;-67
2022/01/23 01:31:42;;;;;;;;;58.50;42.25;;;;;5.83;76.33;102688.56;5057739;28;45686;-67
2022/01/23 01:34:16;;;;;;;;;53.75;42.00;;;;;5.83;76.40;102688.56;5057065;28;45344;-67
2022/01/23 01:36:47;;;;;;;;;47.25;38.75;;;;;5.73;76.13;102689.28;5058809;28;45472;-65
2022/01/23 01:39:16;;;;;;;;;51.50;39.00;;;;;5.67;76.76;102684.84;5058488;28;45469;-66
2022/01/23 01:41:42;;;;;;;;;53.50;41.00;;;;;5.67;76.62;102688.34;5058473;28;45410;-59
2022/01/23 01:44:08;;;;;;;;;48.50;36.00;;;;;5.68;77.38;102686.59;5057848;28;45351;-58
2022/01/23 01:46:34;;;;;;;;;46.75;37.00;;;;;5.67;76.41;102684.84;5058029;28;45351;-61
2022/01/23 01:48:59;;;;;;;;;39.00;32.25;;;;;5.71;76.84;102689.25;5058231;28;45229;-66
2022/01/23 01:51:30;;;;;;;;;46.25;37.25;;;;;5.70;76.67;102680.53;5058521;28;46950;-59
2022/01/23 01:54:03;;;;;;;;;44.50;31.25;;;;;5.69;76.28;102680.50;5057751;28;45591;-65
2022/01/23 01:56:35;;;;;;;;;43.50;34.25;;;;;5.64;76.08;102683.06;5057998;28;45460;-62
2022/01/23 02:09:29;;;;;;;;;40.50;33.00;;;;;5.51;76.55;102683.75;5057717;28;45274;-66
2022/01/23 02:23:10;;;;;;;;;39.25;33.75;;;;;5.43;75.90;102669.72;5057124;28;45750;-60
2022/01/23 02:50:47;;;;;;;;;43.00;35.00;;;;;5.55;76.39;102654.22;5057876;28;45384;-64
2022/01/23 02:53:36;;;;;;;;;36.00;28.75;;;;;5.58;76.24;102641.22;5059267;28;45410;-64
2022/01/23 02:56:06;;;;;;;;;37.50;33.00;;;;;5.63;76.11;102642.16;5056878;28;47070;-64
2022/01/23 02:58:36;;;;;;;;;40.00;36.00;;;;;5.56;75.71;102622.91;5057027;28;45354;-63
2022/01/23 03:01:14;;;;;;;;;50.25;38.50;;;;;5.65;76.04;102637.81;5058114;28;45347;-66
2022/01/23 03:03:44;;;;;;;;;46.75;36.25;;;;;5.70;76.23;102633.53;5062672;28;45295;-67
2022/01/23 03:25:15;;;;;;;;;41.75;33.50;;;;;5.51;75.42;102624.56;5056558;28;45284;-68
2022/01/23 03:30:16;;;;;;;;;44.50;33.00;;;;;5.55;76.11;102622.91;5059320;28;45394;-66
2022/01/23 03:32:46;;;;;;;;;46.25;34.75;;;;;5.53;75.98;102622.00;5059394;28;45284;-66
2022/01/23 03:35:13;;;;;;;;;41.75;35.00;;;;;5.54;76.04;102614.16;5062186;28;45719;-65
2022/01/23 03:37:39;;;;;;;;;48.00;37.00;;;;;5.54;75.92;102621.16;5057621;28;45403;-66
2022/01/23 03:40:05;;;;;;;;;41.50;32.50;;;;;5.54;75.79;102613.31;5056971;28;45394;-66
2022/01/23 03:42:34;;;;;;;;;42.50;32.25;;;;;5.52;76.68;102613.28;5056559;28;45368;-65
2022/01/23 03:47:39;;;;;;;;;40.50;32.25;;;;;5.44;76.36;102601.00;5056607;28;45320;-68
2022/01/23 03:50:10;;;;;;;;;43.00;33.00;;;;;5.47;75.89;102609.72;5056320;28;45402;-65
2022/01/23 03:52:36;;;;;;;;;47.50;35.50;;;;;5.49;76.18;102609.75;5057521;28;45191;-66
2022/01/23 03:55:06;;;;;;;;;41.00;33.00;;;;;5.52;76.05;102615.03;5056842;28;45481;-65
2022/01/23 03:57:32;;;;;;;;;40.75;34.00;;;;;5.54;76.23;102613.31;5055816;28;47193;-64
2022/01/23 03:59:58;;;;;;;;;42.00;35.25;;;;;5.50;76.62;102608.91;5056227;28;45323;-68
2022/01/23 04:02:23;;;;;;;;;45.50;36.75;;;;;5.54;76.15;102608.94;5056291;28;45223;-63
2022/01/23 04:04:49;;;;;;;;;46.25;32.25;;;;;5.58;75.92;102601.16;5056403;28;45520;-64
2022/01/23 04:07:19;;;;;;;;;39.50;33.50;;;;;5.62;75.93;102600.34;5056279;28;45357;-66
2022/01/23 04:09:46;;;;;;;;;44.25;32.50;;;;;5.56;75.87;102593.31;5057013;28;45410;-66
2022/01/23 04:12:27;;;;;;;;;43.50;34.50;;;;;5.52;76.06;102599.34;5056242;28;45336;-63
2022/01/23 04:33:42;;;;;;;;;44.25;33.50;;;;;5.44;76.65;102604.47;5061026;28;45582;-60
2022/01/23 05:00:53;;;;;;;;;36.75;32.75;;;;;5.29;77.16;102612.06;5059447;28;45750;-63
2022/01/23 05:06:06;;;;;;;;;42.50;35.50;;;;;5.36;77.00;102613.91;5061138;28;45218;-66
2022/01/23 05:08:34;;;;;;;;;39.75;31.75;;;;;5.38;76.72;102613.09;5062680;28;45186;-64
2022/01/23 05:11:01;;;;;;;;;35.25;32.00;;;;;5.36;77.75;102613.91;5060837;28;46321;-64
2022/01/23 05:13:28;;;;;;;;;41.00;32.75;;;;;5.32;77.56;102609.50;5059553;28;45372;-66
2022/01/23 05:15:53;;;;;;;;;39.50;32.50;;;;;5.33;77.11;102620.00;5059579;28;45360;-67
2022/01/23 05:18:19;;;;;;;;;50.00;35.50;;;;;5.35;77.09;102615.66;5062179;28;45305;-67
2022/01/23 05:20:47;;;;;;;;;38.25;34.00;;;;;5.28;77.32;102618.16;5065600;28;46127;-63
2022/01/23 05:23:12;;;;;;;;;43.25;34.25;;;;;5.27;77.19;102614.66;5061347;28;45197;-66
2022/01/23 05:25:39;;;;;;;;;37.25;33.25;;;;;5.27;77.05;102622.47;5062239;28;45371;-66
2022/01/23 05:28:07;;;;;;;;;41.25;34.00;;;;;5.16;76.89;102605.78;5060907;28;45473;-67
2022/01/23 05:30:32;;;;;;;;;37.25;27.75;;;;;5.24;76.95;102632.88;5062465;28;45937;-67
2022/01/23 05:32:59;;;;;;;;;44.00;32.25;;;;;5.21;76.47;102622.38;5061612;28;45366;-60
2022/01/23 05:35:27;;;;;;;;;41.50;26.25;;;;;5.21;76.65;102614.56;5060367;28;45330;-67
2022/01/23 05:37:52;;;;;;;;;33.50;29.25;;;;;5.21;76.63;102618.06;5059241;28;45361;-66
2022/01/23 05:40:19;;;;;;;;;38.75;30.75;;;;;5.18;76.95;102615.41;5058939;28;45331;-67
2022/01/23 05:42:45;;;;;;;;;34.00;26.00;;;;;5.19;76.81;102617.16;5058539;28;45455;-67
2022/01/23 05:45:11;;;;;;;;;36.50;28.00;;;;;5.18;76.84;102615.41;5060633;28;45399;-67
2022/01/23 05:47:36;;;;;;;;;32.00;29.75;;;;;5.14;76.92;102610.09;5064521;28;45301;-67
2022/01/23 05:50:04;;;;;;;;;41.75;32.00;;;;;5.12;76.84;102623.13;5062711;28;45320;-65
2022/01/23 05:52:31;;;;;;;;;38.50;28.25;;;;;5.09;76.99;102618.75;5060732;28;46185;-64
2022/01/23 05:54:56;;;;;;;;;37.25;27.75;;;;;5.08;77.32;102622.19;5062652;28;45533;-68
2022/01/23 05:57:22;;;;;;;;;36.50;30.75;;;;;5.09;77.22;102625.69;5061527;28;45228;-65
2022/01/23 05:59:47;;;;;;;;;36.00;29.00;;;;;5.09;77.21;102623.09;5064118;28;45509;-66
2022/01/23 06:02:12;;;;;;;;;31.75;26.50;;;;;5.05;77.37;102624.75;5063862;28;45331;-63
2022/01/23 06:04:37;;;;;;;;;36.75;27.00;;;;;5.01;77.24;102627.31;5059214;28;45613;-66
2022/01/23 06:07:03;;;;;;;;;33.75;27.25;;;;;4.95;77.58;102626.38;5059238;28;45420;-65
2022/01/23 06:09:29;;;;;;;;;33.00;27.00;;;;;4.97;77.59;102627.25;5058934;28;46346;-58
2022/01/23 06:11:54;;;;;;;;;36.25;26.25;;;;;4.99;77.50;102632.50;5060590;28;45303;-65
2022/01/23 06:14:20;;;;;;;;;36.75;26.50;;;;;5.00;77.66;102636.84;5057376;28;45328;-63
2022/01/23 06:16:46;;;;;;;;;30.50;23.25;;;;;5.03;77.51;102630.81;5058073;28;45660;-62
2022/01/23 06:19:11;;;;;;;;;26.00;22.00;;;;;5.05;77.11;102632.59;5057910;28;46286;-64
2022/01/23 06:21:37;;;;;;;;;37.00;25.75;;;;;5.06;77.28;102621.31;5060304;28;45291;-61
2022/01/23 06:24:06;;;;;;;;;26.00;24.75;;;;;5.08;76.87;102623.94;5059343;28;45197;-63
2022/01/23 06:26:43;;;;;;;;;26.75;20.00;;;;;5.05;77.23;102623.91;5056755;28;45342;-67
2022/01/23 06:29:09;;;;;;;;;31.00;25.50;;;;;5.09;76.68;102617.88;5058482;28;46310;-66
2022/01/23 06:31:35;;;;;;;;;24.25;19.75;;;;;5.15;77.18;102624.91;5057682;28;45332;-72
2022/01/23 06:34:01;;;;;;;;;30.50;20.00;;;;;5.06;77.36;102600.44;5060524;28;45272;-59
2022/01/23 06:36:27;;;;;;;;;27.75;21.00;;;;;5.14;76.77;102626.66;5060578;28;45463;-59
2022/01/23 06:38:52;;;;;;;;;40.50;22.50;;;;;5.17;77.84;102625.81;5060135;28;45336;-67
2022/01/23 06:41:18;;;;;;;;;28.50;23.25;;;;;5.25;76.95;102632.00;5058017;28;45261;-63
2022/01/23 06:43:43;;;;;;;;;20.25;17.50;;;;;5.28;76.25;102625.97;5058233;28;45578;-64
2022/01/23 06:46:08;;;;;;;;;23.00;16.75;;;;;5.21;76.06;102620.66;5058969;28;45229;-67
2022/01/23 06:48:34;;;;;;;;;25.50;19.50;;;;;5.20;75.82;102626.75;5059016;28;46222;-66
2022/01/23 06:50:59;;;;;;;;;25.25;18.25;;;;;5.22;76.34;102627.66;5058392;28;45172;-66
2022/01/23 06:53:25;;;;;;;;;24.75;19.75;;;;;5.16;75.96;102614.50;5057370;28;45295;-62
2022/01/23 06:55:50;;;;;;;;;20.00;15.75;;;;;5.13;76.05;102627.50;5057547;28;45655;-64
2022/01/23 06:58:15;;;;;;;;;21.50;16.75;;;;;5.10;75.97;102627.47;5057787;28;45391;-66
2022/01/23 07:00:41;;;;;;;;;17.75;13.50;;;;;5.09;75.91;102625.69;5060414;28;45235;-67
2022/01/23 07:03:06;;;;;;;;;16.00;15.00;;;;;5.08;75.75;102634.38;5059893;28;45734;-66
2022/01/23 07:05:31;;;;;;;;;25.50;17.75;;;;;5.09;76.69;102630.91;5057214;28;45606;-65
2022/01/23 07:07:57;;;;;;;;;22.50;18.00;;;;;5.19;76.33;102639.75;5057815;28;45271;-67
2022/01/23 07:10:24;;;;;;;;;24.25;22.50;;;;;5.25;76.33;102645.06;5057413;28;45283;-66
2022/01/23 07:12:49;;;;;;;;;12.25;8.00;;;;;5.30;76.33;102639.94;5057554;28;45404;-65
2022/01/23 07:15:14;;;;;;;;;23.50;16.00;;;;;5.33;76.37;102635.66;5057704;28;45426;-60
2022/01/23 07:17:41;;;;;;;;;20.75;16.00;;;;;5.35;76.11;102638.25;5057014;28;46222;-62
2022/01/23 07:20:07;;;;;;;;;26.50;21.75;;;;;5.29;75.77;102635.56;5057505;28;45320;-61
2022/01/23 07:22:32;;;;;;;;;22.50;16.50;;;;;5.32;76.46;102633.91;5057326;28;45337;-62
2022/01/23 07:25:02;;;;;;;;;25.00;17.00;;;;;5.34;75.77;102641.72;5057643;28;45410;-67
2022/01/23 07:27:33;;;;;;;;;25.25;21.25;;;;;5.37;76.12;102644.38;5056689;28;45527;-67
2022/01/23 07:29:58;;;;;;;;;24.00;16.50;;;;;5.32;75.31;102641.72;5057511;28;45219;-66
2022/01/23 07:32:23;;;;;;;;;22.50;18.00;;;;;5.38;76.15;102635.69;5057802;28;45295;-66
2022/01/23 07:34:49;;;;;;;;;24.75;21.75;;;;;5.41;75.18;102628.81;5057388;28;45208;-67
2022/01/23 07:37:15;;;;;;;;;20.50;16.75;;;;;5.35;74.68;102636.53;5065509;28;45219;-66
2022/01/23 07:39:41;;;;;;;;;18.75;18.25;;;;;5.35;75.04;102644.38;5060892;28;45332;-68
2022/01/23 07:42:07;;;;;;;;;22.50;19.00;;;;;5.31;74.71;102639.97;5058168;28;45234;-69
2022/01/23 07:44:32;;;;;;;;;25.25;18.25;;;;;5.28;75.13;102637.28;5056840;28;45433;-63
2022/01/23 07:46:58;;;;;;;;;23.25;18.00;;;;;5.28;74.80;102634.66;5056525;28;45429;-69
2022/01/23 07:49:23;;;;;;;;;20.50;16.25;;;;;5.28;75.16;102631.19;5056590;28;45880;-67
2022/01/23 07:51:49;;;;;;;;;18.00;15.50;;;;;5.31;74.88;102634.75;5055614;28;45427;-65
2022/01/23 07:54:14;;;;;;;;;18.25;17.50;;;;;5.33;75.11;102635.66;5056122;28;45622;-66
2022/01/23 07:56:42;;;;;;;;;25.00;20.25;;;;;5.34;74.41;102641.72;5055551;28;45437;-65
2022/01/23 07:59:08;;;;;;;;;30.25;19.00;;;;;5.32;75.05;102638.22;5057796;28;45338;-66
2022/01/23 08:01:36;;;;;;;;;20.75;17.50;;;;;5.35;74.64;102651.31;5057284;28;45431;-67
2022/01/23 08:04:01;;;;;;;;;21.75;17.25;;;;;5.32;74.94;102646.94;5056396;28;45528;-65
2022/01/23 08:06:32;;;;;;;;;24.25;19.50;;;;;5.38;75.04;102661.78;5054100;28;47215;-63
2022/01/23 08:08:57;;;;;;;;;27.50;22.25;;;;;5.40;75.00;102660.09;5056283;28;45465;-65
2022/01/23 08:11:23;;;;;;;;;22.00;18.00;;;;;5.39;74.81;102659.22;5056964;28;45885;-65
2022/01/23 08:13:48;;;;;;;;;21.00;18.25;;;;;5.40;75.01;102666.19;5056972;28;45281;-68
2022/01/23 08:16:13;;;;;;;;;27.00;21.00;;;;;5.41;75.05;102677.50;5058142;28;45347;-66
2022/01/23 08:18:39;;;;;;;;;28.00;21.25;;;;;5.44;75.56;102668.84;5058047;28;45192;-69
2022/01/23 08:21:04;;;;;;;;;28.75;24.50;;;;;5.47;75.27;102674.13;5056248;28;45211;-67
2022/01/23 08:23:30;;;;;;;;;31.00;24.00;;;;;5.52;75.27;102675.06;5056816;28;45660;-66
2022/01/23 08:25:55;;;;;;;;;28.00;24.25;;;;;5.55;74.85;102677.72;5057169;28;46263;-66
2022/01/23 08:28:21;;;;;;;;;24.25;20.00;;;;;5.58;75.07;102677.75;5058457;28;45318;-67
2022/01/23 08:30:46;;;;;;;;;15.75;13.75;;;;;5.59;74.38;102670.78;5058418;28;45212;-66
2022/01/23 08:33:12;;;;;;;;;29.75;19.00;;;;;5.51;73.89;102682.00;5059035;28;45213;-68
2022/01/23 08:35:37;;;;;;;;;27.50;22.50;;;;;5.44;73.72;102674.06;5061404;28;46142;-67
2022/01/23 08:38:03;;;;;;;;;24.25;18.00;;;;;5.36;73.58;102677.44;5062476;28;45352;-62
2022/01/23 08:40:46;;;;;;;;;24.50;23.75;;;;;5.24;73.41;102669.41;5056607;28;45360;-67
2022/01/23 08:43:14;;;;;;;;;32.75;24.00;;;;;5.22;74.52;102676.31;5056899;28;45174;-67
2022/01/23 08:45:39;;;;;;;;;28.75;23.25;;;;;5.18;74.27;102677.13;5055416;28;46546;-65
2022/01/23 08:48:06;;;;;;;;;26.50;22.75;;;;;5.19;74.33;102681.50;5055790;28;45442;-67
2022/01/23 08:50:31;;;;;;;;;36.50;28.00;;;;;5.21;74.32;102683.28;5055959;28;45389;-67
2022/01/23 08:52:56;;;;;;;;;28.75;24.25;;;;;5.22;74.11;102678.94;5055770;28;45473;-65
2022/01/23 08:55:22;;;;;;;;;25.25;21.00;;;;;5.21;74.26;102680.69;5054625;28;47102;-65
2022/01/23 08:57:48;;;;;;;;;299.75;228.00;;;;;5.28;75.49;102680.78;5057964;28;45329;-61
2022/01/23 09:00:14;;;;;;;;;27.00;21.50;;;;;5.25;74.21;102669.44;5056435;28;45218;-61
2022/01/23 09:02:40;;;;;;;;;31.25;25.75;;;;;5.24;74.61;102672.91;5055096;28;45610;-65
2022/01/23 09:05:06;;;;;;;;;27.25;22.00;;;;;5.20;74.39;102675.44;5059203;28;45232;-64
2022/01/23 09:07:31;;;;;;;;;30.00;24.25;;;;;5.19;74.65;102684.09;5058230;28;45224;-64
2022/01/23 09:10:02;;;;;;;;;37.75;23.75;;;;;5.18;75.18;102682.34;5058656;28;45307;-64
2022/01/23 09:12:42;;;;;;;;;32.00;23.75;;;;;5.21;74.76;102682.41;5060311;28;45869;-64
2022/01/23 09:15:08;;;;;;;;;36.50;30.50;;;;;5.18;75.43;102680.63;5059863;28;46335;-55
2022/01/23 09:17:34;;;;;;;;;24.00;21.75;;;;;5.19;75.01;102671.97;5058376;28;45431;-65
2022/01/23 09:19:59;;;;;;;;;55.25;45.50;;;;;5.23;76.01;102667.66;5058827;28;45326;-64
2022/01/23 09:22:29;;;;;;;;;46.00;35.25;;;;;5.25;74.94;102677.28;5058656;28;45529;-66
2022/01/23 09:24:56;;;;;;;;;38.00;32.00;;;;;5.24;75.10;102678.13;5058020;28;47144;-64
2022/01/23 09:27:21;;;;;;;;;66.75;49.75;;;;;5.25;74.52;102673.75;5057683;28;45264;-64
2022/01/23 09:29:53;;;;;;;;;46.25;34.25;;;;;5.25;75.39;102692.03;5058321;28;45252;-64
2022/01/23 09:32:21;;;;;;;;;32.25;26.75;;;;;5.25;74.94;102685.09;5058287;28;45286;-64
2022/01/23 09:34:48;;;;;;;;;29.75;24.00;;;;;5.31;75.54;102686.03;5058986;28;46450;-69
2022/01/23 09:37:15;;;;;;;;;26.75;24.50;;;;;5.34;75.13;102694.81;5059872;28;45505;-66
2022/01/23 09:39:45;;;;;;;;;30.00;24.25;;;;;5.40;75.18;102694.03;5058010;28;45359;-67
2022/01/23 09:42:19;;;;;;;;;24.50;21.00;;;;;5.42;74.83;102687.09;5058417;28;45383;-66
2022/01/23 09:44:53;;;;;;;;;17.00;17.00;;;;;5.40;74.08;102688.81;5057672;28;46458;-66
2022/01/23 09:47:21;;;;;;;;;23.50;17.75;;;;;5.40;74.61;102691.41;5058355;28;45396;-59
2022/01/23 09:49:48;;;;;;;;;28.25;21.50;;;;;5.46;74.06;102683.66;5061239;28;45324;-65
2022/01/23 09:52:15;;;;;;;;;27.25;24.00;;;;;5.46;73.97;102683.66;5062459;28;45380;-64
2022/01/23 09:54:42;;;;;;;;;26.25;23.50;;;;;5.48;73.64;102684.56;5057868;28;48041;-63
2022/01/23 09:57:10;;;;;;;;;29.00;20.00;;;;;5.49;73.27;102682.84;5058085;28;45314;-65
2022/01/23 09:59:37;;;;;;;;;19.00;15.00;;;;;5.49;73.89;102683.72;5059234;28;45449;-64
2022/01/23 10:02:03;;;;;;;;;29.00;20.50;;;;;5.43;73.70;102677.53;5058539;28;45257;-68
2022/01/23 10:04:29;;;;;;;;;27.25;21.75;;;;;5.47;73.79;102685.44;5057946;28;46212;-67
2022/01/23 10:06:55;;;;;;;;;33.00;26.25;;;;;5.54;73.99;102681.19;5058840;28;45429;-67
2022/01/23 10:09:22;;;;;;;;;29.50;23.75;;;;;5.58;74.22;102685.59;5057914;28;45360;-67
2022/01/23 10:11:48;;;;;;;;;24.00;18.00;;;;;5.54;72.96;102683.78;5059222;28;45330;-68
2022/01/23 10:14:15;;;;;;;;;23.00;17.00;;;;;5.51;73.69;102686.38;5058140;28;46283;-67
2022/01/23 10:16:40;;;;;;;;;26.25;20.00;;;;;5.53;73.48;102687.25;5058626;28;45237;-63
2022/01/23 10:19:08;;;;;;;;;24.00;21.25;;;;;5.55;73.77;102691.63;5056782;28;45375;-64
2022/01/23 10:21:35;;;;;;;;;26.00;22.50;;;;;5.53;73.27;102689.88;5058405;28;45276;-67
2022/01/23 10:24:02;;;;;;;;;28.25;23.50;;;;;5.59;73.27;102691.69;5059607;28;46377;-65
2022/01/23 10:26:54;;;;;;;;;18.50;17.75;;;;;5.64;74.14;102695.22;5057000;28;45356;-64
2022/01/23 10:29:30;;;;;;;;;22.25;17.00;;;;;5.67;73.43;102695.28;5048026;28;45383;-65
2022/01/23 10:32:22;;;;;;;;;24.75;22.50;;;;;5.74;73.67;102696.25;5055993;28;45417;-60
2022/01/23 10:34:56;;;;;;;;;18.50;16.25;;;;;5.77;73.44;102683.25;5057272;28;47016;-55
2022/01/23 10:37:33;;;;;;;;;22.50;18.75;;;;;5.83;73.39;102692.06;5056973;28;45249;-61
2022/01/23 10:40:23;;;;;;;;;23.00;19.00;;;;;5.87;73.26;102685.13;5056386;28;45369;-64
2022/01/23 10:50:52;;;;;;;;;23.50;18.25;;;;;5.83;72.94;102683.31;5057746;28;45314;-66
2022/01/23 10:53:17;;;;;;;;;27.25;18.00;;;;;5.85;72.69;102679.00;5057631;28;45533;-62
2022/01/23 10:55:44;;;;;;;;;24.50;22.50;;;;;5.88;73.10;102676.44;5055406;28;46977;-61
2022/01/23 10:58:21;;;;;;;;;26.50;19.75;;;;;5.93;73.10;102679.97;5057242;28;45383;-66
2022/01/23 11:00:46;;;;;;;;;26.00;21.00;;;;;5.90;72.12;102674.72;5055307;28;45243;-66
2022/01/23 11:03:21;;;;;;;;;25.00;20.50;;;;;5.93;72.68;102674.75;5056753;28;45261;-66
2022/01/23 11:05:48;;;;;;;;;23.75;20.25;;;;;5.95;71.82;102666.94;5056182;28;46373;-66
2022/01/23 11:08:27;;;;;;;;;21.50;20.75;;;;;5.92;71.74;102666.91;5056038;28;45435;-57
2022/01/23 11:10:57;;;;;;;;;19.50;17.75;;;;;5.87;72.37;102669.44;5056273;28;45438;-64
2022/01/23 11:19:20;;;;;;;;;25.00;19.00;;;;;5.79;72.35;102656.28;5056573;28;45301;-69
2022/01/23 11:21:45;;;;;;;;;22.00;18.50;;;;;5.64;72.82;102633.47;5057841;28;45161;-62
2022/01/23 11:24:13;;;;;;;;;20.00;19.50;;;;;5.82;72.43;102655.44;5058524;28;45246;-65
2022/01/23 11:26:39;;;;;;;;;26.75;20.50;;;;;5.87;72.44;102647.69;5056842;28;46214;-66
2022/01/23 11:29:10;;;;;;;;;28.75;19.50;;;;;5.92;72.29;102632.94;5060116;28;45298;-63
2022/01/23 11:31:38;;;;;;;;;30.50;29.00;;;;;5.95;72.72;102630.38;5059127;28;45210;-59
2022/01/23 11:34:08;;;;;;;;;22.50;20.75;;;;;6.03;71.83;102626.16;5041678;28;45443;-65
2022/01/23 11:36:35;;;;;;;;;23.25;19.00;;;;;6.03;71.26;102627.88;5059316;28;45374;-67
2022/01/23 11:39:11;;;;;;;;;22.75;20.25;;;;;5.96;71.16;102626.91;5060835;28;45243;-66
2022/01/23 11:56:26;;;;;;;;;18.33;17.00;;;;;5.91;70.83;102611.16;5057625;28;45319;-67
2022/01/23 11:59:14;;;;;;;;;23.75;21.00;;;;;5.91;70.42;102610.31;5057080;28;46194;-67
2022/01/23 12:01:41;;;;;;;;;25.75;21.25;;;;;5.94;71.00;102608.59;5054569;28;45360;-68
2022/01/23 12:04:07;;;;;;;;;17.00;11.50;;;;;5.99;70.09;102609.50;5054318;28;45305;-64
2022/01/23 12:06:35;;;;;;;;;27.75;21.00;;;;;6.01;70.27;102603.47;5055918;28;45671;-65
2022/01/23 12:09:10;;;;;;;;;19.75;17.00;;;;;6.04;69.69;102598.28;5056548;28;45894;-68
2022/01/23 12:11:48;;;;;;;;;19.75;17.50;;;;;6.03;70.65;102597.41;5057774;28;45365;-65
2022/01/23 12:16:58;;;;;;;;;26.00;18.75;;;;;5.98;70.08;102589.47;5058082;28;45516;-54
2022/01/23 12:19:25;;;;;;;;;27.25;22.00;;;;;5.99;70.64;102591.22;5057915;28;46331;-58
2022/01/23 12:21:53;;;;;;;;;21.25;21.25;;;;;6.02;70.77;102586.94;5055878;28;45224;-64
2022/01/23 12:24:22;;;;;;;;;26.25;23.75;;;;;6.07;70.04;102582.63;5053956;28;45376;-58
2022/01/23 12:26:48;;;;;;;;;28.50;23.75;;;;;6.09;70.77;102570.47;5055485;28;45402;-57
2022/01/23 12:29:24;;;;;;;;;27.00;22.75;;;;;6.12;70.44;102575.72;5055781;28;45944;-62
2022/01/23 12:31:50;;;;;;;;;28.50;22.75;;;;;6.11;70.94;102571.34;5055176;28;45312;-65
2022/01/23 12:34:16;;;;;;;;;25.00;20.75;;;;;6.14;70.17;102571.38;5055760;28;45419;-65
2022/01/23 12:36:55;;;;;;;;;23.50;19.00;;;;;6.15;70.10;102567.91;5055586;28;45352;-65
2022/01/23 12:39:20;;;;;;;;;29.50;21.50;;;;;6.14;70.25;102559.22;5058646;28;45455;-63
2022/01/23 12:41:52;;;;;;;;;27.25;23.50;;;;;6.16;71.09;102561.81;5058589;28;45358;-66
2022/01/23 12:44:23;;;;;;;;;26.75;26.25;;;;;6.20;71.13;102554.91;5059179;28;45326;-61
2022/01/23 12:46:54;;;;;;;;;32.25;24.25;;;;;6.23;70.71;102553.19;5057705;28;45490;-64
2022/01/23 12:49:47;;;;;;;;;21.00;19.00;;;;;6.28;70.44;102556.72;5056678;28;45349;-65
2022/01/23 12:52:15;;;;;;;;;31.75;28.75;;;;;6.26;70.44;102539.28;5051867;28;45665;-68
2022/01/23 12:54:46;;;;;;;;;26.25;21.25;;;;;6.31;70.63;102536.69;5059685;28;45377;-65
2022/01/23 12:57:15;;;;;;;;;21.50;19.00;;;;;6.31;70.06;102532.34;5058504;28;45503;-70
2022/01/23 12:59:43;;;;;;;;;23.75;19.50;;;;;6.31;69.52;102536.69;5058757;28;46520;-66
2022/01/23 13:02:15;;;;;;;;;28.75;21.25;;;;;6.34;70.75;102534.09;5056957;28;45373;-67
2022/01/23 13:04:44;;;;;;;;;33.75;25.75;;;;;6.34;70.61;102528.88;5059328;28;45397;-60
2022/01/23 13:07:32;;;;;;;;;28.50;22.75;;;;;6.33;70.03;102528.03;5061127;28;45268;-65
2022/01/23 13:10:22;;;;;;;;;33.50;25.25;;;;;6.33;70.27;102521.91;5057584;28;45901;-63
2022/01/23 13:13:34;;;;;;;;;27.50;25.75;;;;;6.33;70.16;102520.19;5058860;28;45307;-63
2022/01/23 13:16:16;;;;;;;;;27.75;20.00;;;;;6.29;70.21;102524.50;5056294;28;45409;-65
2022/01/23 13:18:45;;;;;;;;;28.00;26.50;;;;;6.30;69.96;102520.16;5058566;28;45388;-65
2022/01/23 13:31:55;;;;;;;;;32.50;28.25;;;;;6.36;70.36;102493.16;5059628;28;45503;-63
2022/01/23 13:34:35;;;;;;;;;35.00;23.75;;;;;6.40;70.15;102501.06;5061207;28;45212;-69
2022/01/23 13:37:08;;;;;;;;;21.75;19.25;;;;;6.39;69.69;102498.47;5059563;28;45468;-66
2022/01/23 13:39:53;;;;;;;;;27.25;26.00;;;;;6.28;69.37;102504.44;5060487;28;45386;-70
2022/01/23 13:42:42;;;;;;;;;35.75;26.00;;;;;6.21;69.99;102491.31;5059254;28;46623;-66
2022/01/23 13:59:26;;;;;;;;;33.00;28.25;;;;;6.28;70.44;102461.75;5058414;28;45484;-68
2022/01/23 14:04:34;;;;;;;;;31.75;25.75;;;;;6.31;69.86;102451.34;5067720;28;45310;-63
2022/01/23 14:06:59;;;;;;;;;25.25;22.25;;;;;6.24;70.56;102455.63;5063272;28;45313;-68
2022/01/23 14:09:26;;;;;;;;;35.50;26.75;;;;;6.26;70.18;102448.66;5059495;28;45239;-65
2022/01/23 14:11:53;;;;;;;;;33.25;28.00;;;;;6.31;71.06;102450.44;5059868;28;45244;-63
2022/01/23 14:14:21;;;;;;;;;41.75;35.50;;;;;6.37;70.52;102445.28;5060583;28;45401;-62
2022/01/23 14:16:54;;;;;;;;;34.00;27.00;;;;;6.40;69.88;102445.31;5060626;28;45357;-64
2022/01/23 14:19:23;;;;;;;;;35.25;26.50;;;;;6.20;69.60;102416.41;5060728;28;45319;-67
2022/01/23 14:22:01;;;;;;;;;31.75;25.75;;;;;6.27;70.05;102445.19;5067099;28;45178;-62
2022/01/23 14:24:35;;;;;;;;;27.50;25.25;;;;;6.28;70.52;102452.16;5065884;28;46037;-63
2022/01/23 14:27:09;;;;;;;;;44.00;33.25;;;;;6.32;70.99;102441.72;5061373;28;45284;-68
2022/01/23 14:29:47;;;;;;;;;29.75;25.50;;;;;6.39;70.12;102435.72;5058511;28;45415;-68
2022/01/23 14:33:06;;;;;;;;;34.00;29.75;;;;;6.47;70.60;102447.09;5058597;28;45323;-69
2022/01/23 14:35:11;;;;;;;;;26.25;23.00;;;;;6.53;70.11;102441.03;5051408;28;46366;-66
2022/01/23 14:37:38;;;;;;;;;30.25;28.00;;;;;6.57;69.74;102432.34;5056567;28;45342;-68
2022/01/23 14:40:23;;;;;;;;;29.50;23.75;;;;;6.59;69.57;102435.84;5057021;28;45281;-59
2022/01/23 14:42:59;;;;;;;;;30.50;22.25;;;;;6.64;70.07;102433.25;5060464;28;45212;-66
2022/01/23 14:45:25;;;;;;;;;33.50;29.75;;;;;6.62;70.19;102428.00;5057924;28;45658;-60
2022/01/23 14:47:51;;;;;;;;;31.00;26.75;;;;;6.71;69.84;102430.69;5058203;28;45205;-64
2022/01/23 14:50:19;;;;;;;;;37.00;29.50;;;;;6.73;69.44;102425.47;5057843;28;45316;-64